createdAt,value
2016-03-18T00:00:56.475Z,0
2016-03-18T00:01:56.445Z,0
2016-03-18T00:02:56.449Z,0
2016-03-18T00:03:56.498Z,0
2016-03-18T00:04:56.453Z,0
2016-03-18T00:05:56.472Z,0
2016-03-18T00:06:56.215Z,0
2016-03-18T00:07:56.498Z,0
2016-03-18T00:08:56.487Z,0
2016-03-18T00:09:56.489Z,0
2016-03-18T00:10:56.538Z,0
2016-03-18T00:11:56.495Z,0
2016-03-18T00:12:56.497Z,0
2016-03-18T00:13:56.500Z,0
2016-03-18T00:14:56.517Z,0
2016-03-18T00:15:56.505Z,0
2016-03-18T00:16:56.508Z,0
2016-03-18T00:17:56.558Z,0
2016-03-18T00:18:56.528Z,0
2016-03-18T00:19:56.546Z,0
2016-03-18T00:20:56.613Z,0
2016-03-18T00:21:56.411Z,0
2016-03-18T00:22:56.539Z,0
2016-03-18T00:23:56.574Z,0
2016-03-18T00:24:56.544Z,0
2016-03-18T00:25:56.579Z,0
2016-03-18T00:26:56.582Z,0
2016-03-18T00:27:56.599Z,0
2016-03-18T00:28:56.587Z,0
2016-03-18T00:29:56.590Z,0
2016-03-18T00:30:56.608Z,0
2016-03-18T00:31:56.597Z,0
2016-03-18T00:32:56.599Z,0
2016-03-18T00:33:56.602Z,0
2016-03-18T00:34:56.604Z,0
2016-03-18T00:35:56.607Z,0
2016-03-18T00:36:56.641Z,0
2016-03-18T00:37:56.613Z,0
2016-03-18T00:38:56.677Z,0
2016-03-18T00:39:56.680Z,0
2016-03-18T00:40:56.526Z,0
2016-03-18T00:41:56.654Z,0
2016-03-18T00:42:56.656Z,0
2016-03-18T11:27:26.582Z,140
2016-03-18T11:28:27.929Z,155
2016-03-18T11:29:27.165Z,160
2016-03-18T11:30:27.292Z,160
2016-03-18T11:31:26.937Z,165
2016-03-18T11:32:27.579Z,165
2016-03-18T11:33:31.801Z,165
2016-03-18T11:34:27.350Z,165
2016-03-18T11:35:29.822Z,165
2016-03-18T11:36:26.856Z,165
2016-03-18T11:37:27.077Z,165
2016-03-18T11:38:26.924Z,165
2016-03-18T11:39:27.192Z,165
2016-03-18T11:40:29.570Z,170
2016-03-18T11:41:27.994Z,165
2016-03-18T11:42:28.231Z,165
2016-03-18T11:44:26.847Z,165
2016-03-18T11:45:28.146Z,165
2016-03-18T11:46:26.914Z,165
2016-03-18T11:47:27.167Z,170
2016-03-18T11:48:36.794Z,170
2016-03-18T11:49:30.407Z,175
2016-03-18T11:50:26.877Z,175
2016-03-18T11:51:26.819Z,175
2016-03-18T11:52:38.868Z,180
2016-03-18T11:53:30.604Z,185
2016-03-18T11:54:29.810Z,185
2016-03-18T11:55:29.766Z,190
2016-03-18T11:56:30.769Z,190
2016-03-18T11:57:31.152Z,190
2016-03-18T11:58:30.389Z,195
2016-03-18T11:59:30.470Z,190
2016-03-18T12:00:30.191Z,195
2016-03-18T12:01:30.631Z,200
2016-03-18T12:02:38.697Z,200
2016-03-18T12:03:30.480Z,210
2016-03-18T12:04:30.608Z,200
2016-03-18T12:05:29.830Z,200
2016-03-18T12:06:30.833Z,195
2016-03-18T12:07:30.507Z,190
2016-03-18T12:08:30.338Z,185
2016-03-18T12:09:30.169Z,185
2016-03-18T12:10:30.483Z,180
2016-03-18T12:11:30.267Z,175
2016-03-18T12:12:30.880Z,170
2016-03-18T12:13:30.304Z,165
2016-03-18T12:14:30.182Z,160
2016-03-18T12:15:30.871Z,155
2016-03-18T12:16:27.469Z,150
2016-03-18T12:17:29.783Z,145
2016-03-18T12:18:30.865Z,140
2016-03-18T12:19:29.883Z,135
2016-03-18T12:20:29.838Z,135
2016-03-18T12:21:30.091Z,135
2016-03-18T12:23:30.207Z,130
2016-03-18T12:24:26.818Z,130
2016-03-18T12:25:26.305Z,135
2016-03-18T12:26:26.776Z,135
2016-03-18T12:27:29.842Z,135
2016-03-18T12:28:30.517Z,135
2016-03-18T12:29:29.862Z,130
2016-03-18T12:30:30.709Z,130
2016-03-18T12:31:30.415Z,135
2016-03-18T12:32:33.262Z,135
2016-03-18T12:33:30.436Z,135
2016-03-18T12:34:28.158Z,140
2016-03-18T12:35:29.661Z,135
2016-03-18T12:37:31.119Z,135
2016-03-18T12:38:30.590Z,135
2016-03-18T12:39:29.967Z,135
2016-03-18T12:40:30.439Z,140
2016-03-18T12:41:26.661Z,140
2016-03-18T12:42:26.726Z,140
2016-03-18T12:43:29.901Z,140
2016-03-18T12:44:34.731Z,140
2016-03-18T12:45:30.906Z,140
2016-03-18T12:46:26.752Z,140
2016-03-18T12:47:26.693Z,140
2016-03-18T12:48:30.227Z,140
2016-03-18T12:49:30.823Z,140
2016-03-18T12:50:26.404Z,140
2016-03-18T12:51:30.094Z,140
2016-03-18T12:52:35.160Z,140
2016-03-18T12:53:29.302Z,140
2016-03-18T12:54:26.602Z,140
2016-03-18T12:55:29.682Z,140
2016-03-18T12:56:31.107Z,140
2016-03-18T12:57:26.923Z,140
2016-03-18T12:58:26.879Z,140
2016-03-18T12:59:35.725Z,140
2016-03-18T13:00:26.696Z,145
2016-03-18T13:01:29.901Z,140
2016-03-18T13:02:26.498Z,140
2016-03-18T13:03:27.063Z,140
2016-03-18T13:04:26.629Z,140
2016-03-18T13:05:41.381Z,140
2016-03-18T13:06:26.650Z,140
2016-03-18T13:07:26.606Z,140
2016-03-18T13:08:28.014Z,140
2016-03-18T13:09:42.128Z,140
2016-03-18T13:10:29.268Z,140
2016-03-18T13:11:29.412Z,140
2016-03-18T13:12:29.633Z,140
2016-03-18T13:13:29.104Z,140
2016-03-18T13:14:29.310Z,140
2016-03-18T13:15:40.987Z,140
2016-03-18T13:16:28.503Z,140
2016-03-18T13:17:40.461Z,140
2016-03-18T13:18:29.477Z,140
2016-03-18T13:19:29.870Z,140
2016-03-18T13:20:26.873Z,140
2016-03-18T13:21:29.470Z,140
2016-03-18T13:22:29.192Z,140
2016-03-18T13:23:30.023Z,145
2016-03-18T13:24:30.275Z,140
2016-03-18T13:25:29.028Z,140
2016-03-18T13:26:38.671Z,140
2016-03-18T13:27:29.970Z,140
2016-03-18T13:28:37.755Z,140
2016-03-18T13:29:29.929Z,140
2016-03-18T13:30:29.135Z,145
2016-03-18T13:31:28.981Z,145
2016-03-18T13:32:37.749Z,145
2016-03-18T13:33:40.361Z,145
2016-03-18T13:34:29.786Z,145
2016-03-18T13:35:29.460Z,145
2016-03-18T13:36:28.838Z,145
2016-03-18T13:37:28.810Z,145
2016-03-18T13:38:29.704Z,145
2016-03-18T13:39:29.877Z,140
2016-03-18T13:40:29.615Z,140
2016-03-18T13:41:29.337Z,140
2016-03-18T13:42:29.339Z,140
2016-03-18T13:43:37.701Z,140
2016-03-18T13:44:29.110Z,140
2016-03-18T13:45:37.753Z,140
2016-03-18T13:46:28.256Z,140
2016-03-18T13:47:29.148Z,140
2016-03-18T13:48:29.433Z,140
2016-03-18T13:49:29.889Z,140
2016-03-18T13:50:26.125Z,145
2016-03-18T13:51:29.144Z,140
2016-03-18T13:52:29.334Z,140
2016-03-18T13:53:29.556Z,140
2016-03-18T13:54:37.168Z,140
2016-03-18T13:55:29.014Z,140
2016-03-18T13:56:29.361Z,140
2016-03-18T13:57:37.755Z,140
2016-03-18T13:58:29.023Z,140
2016-03-18T13:59:39.228Z,140
2016-03-18T14:00:25.888Z,140
2016-03-18T14:01:29.937Z,140
2016-03-18T14:02:29.830Z,140
2016-03-18T14:03:49.539Z,145
2016-03-18T14:04:33.805Z,140
2016-03-18T14:05:29.572Z,140
2016-03-18T14:06:29.185Z,140
2016-03-18T14:07:29.672Z,140
2016-03-18T14:09:29.224Z,140
2016-03-18T14:10:29.430Z,140
2016-03-18T14:11:29.448Z,140
2016-03-18T14:12:29.201Z,145
2016-03-18T14:13:29.359Z,140
2016-03-18T14:14:43.003Z,140
2016-03-18T14:15:28.990Z,140
2016-03-18T14:16:30.384Z,140
2016-03-18T14:17:36.729Z,140
2016-03-18T14:18:30.920Z,140
2016-03-18T14:19:29.360Z,140
2016-03-18T14:20:34.503Z,140
2016-03-18T14:21:28.834Z,140
2016-03-18T14:22:29.056Z,145
2016-03-18T14:23:31.058Z,140
2016-03-18T14:24:29.858Z,140
2016-03-18T14:25:38.142Z,140
2016-03-18T14:26:28.973Z,140
2016-03-18T14:27:29.617Z,140
2016-03-18T14:28:29.009Z,140
2016-03-18T14:29:28.622Z,140
2016-03-18T14:30:28.984Z,140
2016-03-18T14:31:41.080Z,140
2016-03-18T14:32:25.599Z,140
2016-03-18T14:33:29.930Z,140
2016-03-18T14:34:29.370Z,140
2016-03-18T14:35:29.607Z,140
2016-03-18T14:36:30.063Z,140
2016-03-18T14:37:25.862Z,140
2016-03-18T14:38:28.708Z,135
2016-03-18T14:39:30.383Z,135
2016-03-18T14:40:25.729Z,135
2016-03-18T14:41:28.357Z,135
2016-03-18T14:42:30.360Z,135
2016-03-18T14:43:30.518Z,135
2016-03-18T14:44:30.334Z,135
2016-03-18T14:45:29.087Z,135
2016-03-18T14:46:28.776Z,140
2016-03-18T14:47:38.467Z,140
2016-03-18T14:48:30.423Z,140
2016-03-18T14:49:25.831Z,140
2016-03-18T14:50:25.568Z,140
2016-03-18T14:51:37.789Z,140
2016-03-18T14:52:29.027Z,140
2016-03-18T14:53:30.201Z,140
2016-03-18T14:54:38.064Z,140
2016-03-18T14:55:25.863Z,140
2016-03-18T14:56:25.569Z,145
2016-03-18T14:59:25.733Z,140
2016-03-18T15:00:25.595Z,145
2016-03-18T15:01:25.847Z,140
2016-03-18T15:02:28.444Z,140
2016-03-18T15:03:25.635Z,140
2016-03-18T15:04:25.841Z,140
2016-03-18T15:05:25.828Z,140
2016-03-18T15:06:25.674Z,145
2016-03-18T15:07:26.114Z,145
2016-03-18T15:09:25.886Z,145
2016-03-18T15:10:34.091Z,145
2016-03-18T15:11:26.844Z,140
2016-03-18T15:12:27.285Z,140
2016-03-18T15:13:28.349Z,140
2016-03-18T15:14:28.993Z,140
2016-03-18T15:16:28.373Z,140
2016-03-18T15:17:29.704Z,140
2016-03-18T15:18:28.534Z,140
2016-03-18T15:19:28.865Z,140
2016-03-18T15:20:29.212Z,135
2016-03-18T15:22:28.779Z,135
2016-03-18T15:23:29.032Z,135
2016-03-18T15:25:28.022Z,135
2016-03-18T15:27:28.683Z,135
2016-03-18T15:28:28.389Z,140
2016-03-18T15:29:28.564Z,135
2016-03-18T15:31:28.522Z,140
2016-03-18T15:32:42.510Z,140
2016-03-18T15:33:37.683Z,140
2016-03-18T15:34:28.374Z,140
2016-03-18T15:36:28.957Z,135
2016-03-18T15:37:29.913Z,140
2016-03-18T15:38:28.666Z,140
2016-03-18T15:39:28.982Z,140
2016-03-18T15:40:37.750Z,135
2016-03-18T15:41:28.627Z,135
2016-03-18T15:42:28.521Z,140
2016-03-18T15:43:29.133Z,140
2016-03-18T15:44:28.901Z,135
2016-03-18T15:45:28.748Z,135
2016-03-18T15:46:29.001Z,135
2016-03-18T15:47:30.863Z,140
2016-03-18T15:48:29.209Z,140
2016-03-18T15:49:28.977Z,145
2016-03-18T15:50:29.418Z,140
2016-03-18T15:51:37.420Z,140
2016-03-18T15:52:29.407Z,140
2016-03-18T15:53:29.816Z,140
2016-03-18T15:54:29.115Z,140
2016-03-18T15:55:29.259Z,135
2016-03-18T15:56:29.042Z,135
2016-03-18T15:57:39.748Z,135
2016-03-18T15:59:29.722Z,130
2016-03-18T16:00:29.756Z,130
2016-03-18T16:01:30.431Z,130
2016-03-18T16:02:29.695Z,130
2016-03-18T16:03:29.951Z,130
2016-03-18T16:04:29.565Z,125
2016-03-18T16:05:38.820Z,120
2016-03-18T16:06:26.083Z,120
2016-03-18T16:07:40.654Z,115
2016-03-18T16:08:29.184Z,115
2016-03-18T16:09:29.057Z,110
2016-03-18T16:10:29.352Z,110
2016-03-18T16:11:29.319Z,110
2016-03-18T16:12:29.365Z,105
2016-03-18T16:13:29.617Z,105
2016-03-18T16:14:41.071Z,100
2016-03-18T16:16:30.370Z,100
2016-03-18T16:17:37.700Z,100
2016-03-18T16:18:30.483Z,100
2016-03-18T16:19:40.908Z,100
2016-03-18T16:20:29.097Z,95
2016-03-18T16:21:29.646Z,95
2016-03-18T16:22:29.805Z,95
2016-03-18T16:23:29.792Z,95
2016-03-18T16:24:32.638Z,90
2016-03-18T16:25:29.905Z,90
2016-03-18T16:26:29.705Z,90
2016-03-18T16:27:30.316Z,90
2016-03-18T16:28:29.507Z,90
2016-03-18T16:29:29.962Z,85
2016-03-18T16:30:29.778Z,85
2016-03-18T16:31:30.062Z,80
2016-03-18T16:32:30.518Z,80
2016-03-18T16:35:31.369Z,80
2016-03-18T16:36:29.856Z,75
2016-03-18T16:37:37.203Z,75
2016-03-18T16:38:30.596Z,75
2016-03-18T16:39:30.708Z,70
2016-03-18T16:40:42.601Z,70
2016-03-18T16:42:30.169Z,65
2016-03-18T16:43:30.891Z,65
2016-03-18T16:45:42.475Z,60
2016-03-18T16:46:38.853Z,60
2016-03-18T16:47:30.292Z,60
2016-03-18T16:48:27.873Z,55
2016-03-18T16:49:27.235Z,55
2016-03-18T16:50:30.785Z,55
2016-03-18T16:51:31.021Z,50
2016-03-18T16:52:31.509Z,50
2016-03-18T16:53:41.199Z,50
2016-03-18T16:54:31.452Z,45
2016-03-18T16:55:38.657Z,45
2016-03-18T16:56:30.176Z,45
2016-03-18T16:57:39.694Z,40
2016-03-18T16:58:39.525Z,40
2016-03-18T16:59:30.324Z,40
2016-03-18T17:00:40.280Z,35
2016-03-18T17:01:28.111Z,35
2016-03-18T17:02:28.004Z,35
2016-03-18T17:03:31.320Z,30
2016-03-18T17:05:28.106Z,25
2016-03-18T17:06:36.500Z,25
2016-03-18T17:07:31.555Z,25
2016-03-18T17:08:28.229Z,20
2016-03-18T17:09:28.138Z,20
2016-03-18T17:10:28.188Z,20
2016-03-18T17:12:40.099Z,15
2016-03-18T17:13:28.306Z,15
2016-03-18T17:14:28.340Z,15
2016-03-18T17:15:28.514Z,10
2016-03-18T17:16:28.704Z,10
2016-03-18T17:17:28.004Z,10
2016-03-18T17:18:28.631Z,10
2016-03-18T17:19:28.509Z,5
2016-03-18T17:20:29.043Z,5
2016-03-18T17:21:29.498Z,5
2016-03-18T17:22:30.626Z,5
2016-03-18T17:23:32.051Z,5
2016-03-18T17:24:28.991Z,5
2016-03-18T17:25:29.728Z,5
2016-03-18T17:26:30.809Z,5
2016-03-18T17:27:31.936Z,5
2016-03-18T17:28:38.658Z,5
2016-03-18T17:29:30.395Z,5
2016-03-18T17:30:31.383Z,0
2016-03-18T17:31:31.448Z,0
2016-03-18T17:32:31.982Z,0
2016-03-18T17:33:32.313Z,0
2016-03-18T17:34:31.706Z,0
2016-03-18T17:35:32.256Z,0
2016-03-18T17:36:31.664Z,0
2016-03-18T17:38:31.404Z,0
2016-03-18T17:39:31.251Z,0
2016-03-18T17:40:46.019Z,0
2016-03-18T17:41:31.662Z,0
2016-03-18T17:42:31.743Z,0
2016-03-18T17:43:34.183Z,0
2016-03-18T17:44:31.780Z,0
2016-03-18T17:45:34.563Z,0
2016-03-18T17:46:31.348Z,0
2016-03-18T17:47:31.601Z,0
2016-03-18T17:48:39.462Z,0
2016-03-18T17:49:31.481Z,0
2016-03-18T17:50:31.562Z,0
2016-03-18T17:51:32.533Z,0
2016-03-18T17:52:31.942Z,0
2016-03-18T17:53:31.835Z,0
2016-03-18T17:54:40.088Z,0
2016-03-18T17:55:31.872Z,0
2016-03-18T17:56:31.593Z,0
2016-03-18T17:57:31.564Z,0
2016-03-18T17:58:31.786Z,0
2016-03-18T17:59:32.148Z,0
2016-03-18T18:00:32.103Z,0
2016-03-18T18:01:32.153Z,0
2016-03-18T18:02:32.500Z,0
2016-03-18T18:03:31.424Z,0
2016-03-18T18:04:40.630Z,0
2016-03-18T18:05:40.821Z,0
2016-03-18T18:06:31.980Z,0
2016-03-18T18:07:33.216Z,0
2016-03-18T18:08:32.313Z,0
2016-03-18T18:09:32.097Z,0
2016-03-18T18:10:40.725Z,0
2016-03-18T18:11:32.008Z,0
2016-03-18T18:12:33.465Z,0
2016-03-18T18:13:31.499Z,0
2016-03-18T18:14:32.657Z,0
2016-03-18T18:15:31.723Z,0
2016-03-18T18:16:30.069Z,0
2016-03-18T18:17:32.321Z,0
2016-03-18T18:18:32.371Z,0
2016-03-18T18:19:32.312Z,0
2016-03-18T18:20:32.377Z,0
2016-03-18T18:21:40.740Z,0
2016-03-18T18:22:32.256Z,0
2016-03-18T18:23:32.087Z,0
2016-03-18T18:25:32.625Z,0
2016-03-18T18:26:29.003Z,0
2016-03-18T18:27:31.724Z,0
2016-03-18T18:28:32.086Z,0
2016-03-18T18:30:32.201Z,0
2016-03-18T18:32:46.112Z,0
2016-03-18T18:33:32.475Z,0
2016-03-18T18:34:32.133Z,0
2016-03-18T18:35:32.136Z,0
2016-03-18T18:36:40.795Z,0
2016-03-18T18:37:32.110Z,0
2016-03-18T18:38:32.035Z,0
2016-03-18T18:39:31.944Z,0
2016-03-18T18:40:32.353Z,0
2016-03-18T18:41:32.106Z,0
2016-03-18T18:42:32.671Z,0
2016-03-18T18:43:40.720Z,0
2016-03-18T18:44:32.879Z,0
2016-03-18T18:45:32.147Z,0
2016-03-18T18:46:34.291Z,0
2016-03-18T18:47:29.341Z,0
2016-03-18T18:48:33.530Z,0
2016-03-18T18:49:32.033Z,0
2016-03-18T18:50:29.489Z,0
2016-03-18T18:51:32.492Z,0
2016-03-18T18:52:32.634Z,0
2016-03-18T18:54:32.156Z,0
2016-03-18T18:56:06.877Z,0
2016-03-18T18:57:39.242Z,0
2016-03-18T18:59:14.060Z,0
2016-03-18T19:00:45.016Z,0
2016-03-18T19:02:14.834Z,0
2016-03-18T19:03:47.305Z,0
2016-03-18T19:05:21.544Z,0
2016-03-18T19:06:56.172Z,0
2016-03-18T19:08:28.786Z,0
2016-03-18T19:09:59.556Z,0
2016-03-18T19:11:40.967Z,0
2016-03-18T19:13:16.925Z,0
2016-03-18T19:14:19.819Z,0
2016-03-18T19:14:34.975Z,0
2016-03-18T19:15:35.477Z,0
2016-03-18T19:17:04.841Z,0
2016-03-18T19:17:36.108Z,0
2016-03-18T19:18:35.283Z,0
2016-03-18T19:19:47.504Z,0
2016-03-18T19:20:38.023Z,0
2016-03-18T19:21:45.166Z,0
2016-03-18T19:22:44.528Z,0
2016-03-18T19:23:43.046Z,0
2016-03-18T19:24:44.862Z,0
2016-03-18T19:25:43.130Z,0
2016-03-18T19:26:34.852Z,0
2016-03-18T19:27:51.729Z,0
2016-03-18T19:28:46.279Z,0
2016-03-18T19:29:35.109Z,0
2016-03-18T19:30:48.831Z,0
2016-03-18T19:31:35.006Z,0
2016-03-18T19:32:38.851Z,0
2016-03-18T19:33:39.120Z,0
2016-03-18T19:34:38.013Z,0
2016-03-18T19:35:35.110Z,0
2016-03-18T19:36:35.066Z,0
2016-03-18T19:37:35.037Z,0
2016-03-18T19:38:35.243Z,0
2016-03-18T19:39:35.074Z,0
2016-03-18T19:40:37.483Z,0
2016-03-18T19:41:46.063Z,0
2016-03-18T19:42:38.597Z,0
2016-03-18T19:43:35.272Z,0
2016-03-18T19:44:49.322Z,0
2016-03-18T19:45:35.387Z,0
2016-03-18T19:46:34.874Z,0
2016-03-18T19:47:37.392Z,0
2016-03-18T19:48:37.832Z,0
2016-03-18T19:49:34.944Z,0
2016-03-18T19:50:35.635Z,0
2016-03-18T19:51:37.637Z,0
2016-03-18T19:52:38.249Z,0
2016-03-18T19:53:34.845Z,0
2016-03-18T19:54:34.911Z,0
2016-03-18T19:55:37.632Z,0
2016-03-18T19:56:38.182Z,0
2016-03-18T19:57:47.981Z,0
2016-03-18T19:58:38.046Z,0
2016-03-18T19:59:38.003Z,0
2016-03-18T20:00:52.192Z,0
2016-03-18T20:01:37.758Z,0
2016-03-18T20:02:38.104Z,0
2016-03-18T20:03:37.794Z,0
2016-03-18T20:04:50.907Z,0
2016-03-18T20:05:38.534Z,0
2016-03-18T20:06:49.100Z,0
2016-03-18T20:07:38.493Z,0
2016-03-18T20:09:37.748Z,0
2016-03-18T20:11:37.536Z,0
2016-03-18T20:12:38.038Z,0
2016-03-18T20:13:37.119Z,0
2016-03-18T20:15:38.217Z,0
2016-03-18T20:16:37.580Z,0
2016-03-18T20:17:37.644Z,0
2016-03-18T20:18:36.960Z,0
2016-03-18T20:19:37.399Z,0
2016-03-18T20:20:37.543Z,0
2016-03-18T20:21:37.905Z,0
2016-03-18T20:23:38.333Z,0
2016-03-18T20:24:37.382Z,0
2016-03-18T20:25:38.354Z,0
2016-03-18T20:26:35.450Z,0
2016-03-18T20:27:38.218Z,0
2016-03-18T20:28:38.236Z,0
2016-03-18T20:29:37.020Z,0
2016-03-18T20:30:37.648Z,0
2016-03-18T20:31:37.947Z,0
2016-03-18T20:32:47.482Z,0
2016-03-18T20:33:38.234Z,0
2016-03-18T20:34:37.565Z,0
2016-03-18T20:35:37.021Z,0
2016-03-18T20:36:36.898Z,0
2016-03-18T20:38:37.248Z,0
2016-03-18T20:39:54.736Z,0
2016-03-18T20:40:37.067Z,0
2016-03-18T20:41:37.006Z,0
2016-03-18T20:42:37.165Z,0
2016-03-18T20:43:37.434Z,0
2016-03-18T20:44:37.561Z,0
2016-03-18T20:45:37.064Z,0
2016-03-18T20:46:36.722Z,0
2016-03-18T20:47:37.132Z,0
2016-03-18T20:48:33.806Z,0
2016-03-18T20:49:48.215Z,0
2016-03-18T20:50:36.780Z,0
2016-03-18T20:51:37.252Z,0
2016-03-18T20:52:37.207Z,0
2016-03-18T20:53:36.976Z,0
2016-03-18T20:54:49.244Z,0
2016-03-18T20:55:37.060Z,0
2016-03-18T20:56:37.609Z,0
2016-03-18T20:57:50.143Z,0
2016-03-18T20:58:37.083Z,0
2016-03-18T20:59:36.867Z,0
2016-03-18T21:00:37.245Z,0
2016-03-18T21:01:37.107Z,0
2016-03-18T21:02:37.265Z,0
2016-03-18T21:03:37.800Z,0
2016-03-18T21:04:44.005Z,0
2016-03-18T21:05:37.336Z,0
2016-03-18T21:06:37.298Z,0
2016-03-18T21:07:37.270Z,0
2016-03-18T21:08:47.773Z,0
2016-03-18T21:09:36.837Z,0
2016-03-18T21:10:34.121Z,0
2016-03-18T21:11:36.936Z,0
2016-03-18T21:12:36.845Z,0
2016-03-18T21:13:36.301Z,0
2016-03-18T21:15:36.478Z,0
2016-03-18T21:16:36.778Z,0
2016-03-18T21:18:36.987Z,0
2016-03-18T21:19:37.240Z,0
2016-03-18T21:21:37.714Z,0
2016-03-18T21:22:37.810Z,0
2016-03-18T21:23:37.250Z,0
2016-03-18T21:24:33.877Z,0
2016-03-18T21:25:36.569Z,0
2016-03-18T21:26:34.008Z,0
2016-03-18T21:27:36.980Z,0
2016-03-18T21:30:34.457Z,0
2016-03-18T21:31:36.599Z,0
2016-03-18T21:32:38.587Z,0
2016-03-18T21:33:35.293Z,0
2016-03-18T21:34:45.154Z,0
2016-03-18T21:36:36.847Z,0
2016-03-18T21:37:33.553Z,0
2016-03-18T21:38:33.899Z,0
2016-03-18T21:39:33.793Z,0
2016-03-18T21:40:45.655Z,0
2016-03-18T21:41:36.657Z,0
2016-03-18T21:42:33.676Z,0
2016-03-18T21:43:33.741Z,0
2016-03-18T21:44:42.712Z,0
2016-03-18T21:45:34.668Z,0
2016-03-18T21:46:35.203Z,0
2016-03-18T21:47:36.971Z,0
2016-03-18T21:48:32.958Z,0
2016-03-18T21:49:37.117Z,0
2016-03-18T21:50:36.806Z,0
2016-03-18T21:51:37.341Z,0
2016-03-18T21:52:36.141Z,0
2016-03-18T21:53:36.065Z,0
2016-03-18T21:54:45.130Z,0
2016-03-18T21:55:37.242Z,0
2016-03-18T21:57:46.405Z,0
2016-03-18T21:58:36.485Z,0
2016-03-18T21:59:45.378Z,0
2016-03-18T22:00:38.725Z,0
2016-03-18T22:01:35.227Z,0
2016-03-18T22:02:38.855Z,0
2016-03-18T22:03:36.857Z,0
2016-03-18T22:04:34.782Z,0
2016-03-18T22:06:45.662Z,0
2016-03-18T22:07:36.821Z,0
2016-03-18T22:08:36.637Z,0
2016-03-18T22:09:36.515Z,0
2016-03-18T22:10:36.001Z,0
2016-03-18T22:11:37.004Z,0
2016-03-18T22:12:36.226Z,0
2016-03-18T22:13:36.197Z,0
2016-03-18T22:14:44.184Z,0
2016-03-18T22:15:35.983Z,0
2016-03-18T22:16:35.767Z,0
2016-03-18T22:17:43.036Z,0
2016-03-18T22:18:35.679Z,0
2016-03-18T22:19:35.651Z,0
2016-03-18T22:20:35.872Z,0
2016-03-18T22:21:36.000Z,0
2016-03-18T22:22:32.924Z,0
2016-03-18T22:23:44.692Z,0
2016-03-18T22:24:36.117Z,0
2016-03-18T22:25:36.713Z,0
2016-03-18T22:26:32.638Z,0
2016-03-18T22:27:46.797Z,0
2016-03-18T22:28:36.238Z,0
2016-03-18T22:29:44.178Z,0
2016-03-18T22:30:46.758Z,0
2016-03-18T22:31:35.714Z,0
2016-03-18T22:32:35.607Z,0
2016-03-18T22:34:35.816Z,0
2016-03-18T22:35:35.943Z,0
2016-03-18T22:36:44.805Z,0
2016-03-18T22:37:35.433Z,0
2016-03-18T22:38:35.842Z,0
2016-03-18T22:39:35.548Z,0
2016-03-18T22:40:52.675Z,0
2016-03-18T22:41:36.850Z,0
2016-03-18T22:42:35.853Z,0
2016-03-18T22:44:32.531Z,0
2016-03-18T22:45:35.751Z,0
2016-03-18T22:46:35.879Z,0
2016-03-18T22:47:35.647Z,0
2016-03-18T22:48:49.400Z,0
2016-03-18T22:50:35.390Z,0
2016-03-18T22:51:35.409Z,0
2016-03-18T22:52:34.428Z,0
2016-03-18T22:53:35.539Z,0
2016-03-18T22:54:43.683Z,0
2016-03-18T22:55:35.513Z,0
2016-03-18T22:57:43.049Z,0
2016-03-18T22:58:43.130Z,0
2016-03-18T22:59:33.680Z,0
2016-03-18T23:00:34.073Z,0
2016-03-18T23:01:35.497Z,0
2016-03-18T23:02:35.204Z,0
2016-03-18T23:03:44.207Z,0
2016-03-18T23:04:35.069Z,0
2016-03-18T23:05:35.196Z,0
2016-03-18T23:07:32.232Z,0
2016-03-18T23:08:34.923Z,0
2016-03-18T23:09:35.285Z,0
2016-03-18T23:10:48.865Z,0
2016-03-18T23:12:34.776Z,0
2016-03-18T23:13:33.983Z,0
2016-03-18T23:14:52.626Z,0
2016-03-18T23:15:34.535Z,0
2016-03-18T23:16:43.632Z,0
2016-03-18T23:17:35.103Z,0
2016-03-18T23:18:35.778Z,0
2016-03-18T23:19:35.061Z,0
2016-03-18T23:20:34.892Z,0
2016-03-18T23:21:35.817Z,0
2016-03-18T23:22:35.883Z,0
2016-03-18T23:23:35.104Z,0
2016-03-18T23:24:45.951Z,0
2016-03-18T23:25:36.578Z,0
2016-03-18T23:26:36.347Z,0
2016-03-18T23:27:46.474Z,0
2016-03-18T23:29:42.105Z,0
2016-03-18T23:30:35.779Z,0
2016-03-18T23:31:34.594Z,0
2016-03-18T23:32:33.143Z,0
2016-03-18T23:33:34.615Z,0
2016-03-18T23:34:34.274Z,0
2016-03-18T23:35:41.871Z,0
2016-03-18T23:36:34.967Z,0
2016-03-18T23:37:34.626Z,0
2016-03-18T23:38:47.519Z,0
2016-03-18T23:39:39.693Z,0
2016-03-18T23:40:35.352Z,0
2016-03-18T23:41:42.230Z,0
2016-03-18T23:42:34.201Z,0
2016-03-18T23:43:32.173Z,0
2016-03-18T23:44:39.456Z,0
2016-03-18T23:45:40.116Z,0
2016-03-18T23:46:46.165Z,0
2016-03-18T23:48:34.515Z,0
2016-03-18T23:51:31.617Z,0
2016-03-18T23:53:40.106Z,0
2016-03-18T23:54:36.348Z,0
2016-03-18T23:55:33.691Z,0
2016-03-18T23:56:34.741Z,0
2016-03-18T23:57:44.773Z,0
2016-03-18T23:58:41.304Z,0
2016-03-18T23:59:45.071Z,0
